sensor_id;sensor_type;location;lat;lon;timestamp;temperature;humidity
41262;DHT22;29629;52.532;13.352;2023-07-13T00:01:05;21.10;99.90
41262;DHT22;29629;52.532;13.352;2023-07-13T00:03:32;21.00;99.90
41262;DHT22;29629;52.532;13.352;2023-07-13T00:06:01;21.00;99.90
41262;DHT22;29629;52.532;13.352;2023-07-13T00:08:30;21.10;99.90
41262;DHT22;29629;52.532;13.352;2023-07-13T00:10:59;21.00;99.90
41262;DHT22;29629;52.532;13.352;2023-07-13T00:13:26;21.00;99.90
41262;DHT22;29629;52.532;13.352;2023-07-13T00:15:53;20.90;99.90
41262;DHT22;29629;52.532;13.352;2023-07-13T00:18:22;20.90;99.90
41262;DHT22;29629;52.532;13.352;2023-07-13T00:20:48;20.90;99.90
41262;DHT22;29629;52.532;13.352;2023-07-13T00:23:15;20.80;99.90
41262;DHT22;29629;52.532;13.352;2023-07-13T00:25:44;20.80;99.90
41262;DHT22;29629;52.532;13.352;2023-07-13T00:28:13;20.70;99.90
41262;DHT22;29629;52.532;13.352;2023-07-13T00:30:40;20.70;99.90
41262;DHT22;29629;52.532;13.352;2023-07-13T00:33:06;20.70;99.90
41262;DHT22;29629;52.532;13.352;2023-07-13T00:35:34;20.60;99.90
41262;DHT22;29629;52.532;13.352;2023-07-13T00:38:01;20.70;99.90
41262;DHT22;29629;52.532;13.352;2023-07-13T00:40:28;20.70;99.90
41262;DHT22;29629;52.532;13.352;2023-07-13T00:42:57;20.70;99.90
41262;DHT22;29629;52.532;13.352;2023-07-13T00:46:10;20.60;99.90
41262;DHT22;29629;52.532;13.352;2023-07-13T00:48:38;20.70;99.90
41262;DHT22;29629;52.532;13.352;2023-07-13T00:51:05;20.70;99.90
41262;DHT22;29629;52.532;13.352;2023-07-13T00:53:33;20.70;99.90
41262;DHT22;29629;52.532;13.352;2023-07-13T00:56:01;20.70;99.90
41262;DHT22;29629;52.532;13.352;2023-07-13T00:58:29;20.70;99.90
41262;DHT22;29629;52.532;13.352;2023-07-13T01:00:56;20.60;99.90
41262;DHT22;29629;52.532;13.352;2023-07-13T01:03:24;20.50;99.90
41262;DHT22;29629;52.532;13.352;2023-07-13T01:05:52;20.60;99.90
41262;DHT22;29629;52.532;13.352;2023-07-13T01:08:19;20.40;99.90
41262;DHT22;29629;52.532;13.352;2023-07-13T01:10:54;20.40;99.90
41262;DHT22;29629;52.532;13.352;2023-07-13T01:13:21;20.40;99.90
41262;DHT22;29629;52.532;13.352;2023-07-13T01:15:50;20.40;99.90
41262;DHT22;29629;52.532;13.352;2023-07-13T01:18:19;20.40;99.90
41262;DHT22;29629;52.532;13.352;2023-07-13T01:20:52;20.40;99.90
41262;DHT22;29629;52.532;13.352;2023-07-13T01:23:19;20.40;99.90
41262;DHT22;29629;52.532;13.352;2023-07-13T01:25:46;20.40;99.90
41262;DHT22;29629;52.532;13.352;2023-07-13T01:28:13;20.50;99.90
41262;DHT22;29629;52.532;13.352;2023-07-13T01:30:43;20.50;99.90
41262;DHT22;29629;52.532;13.352;2023-07-13T01:33:11;20.30;99.90
41262;DHT22;29629;52.532;13.352;2023-07-13T01:35:39;20.10;99.90
41262;DHT22;29629;52.532;13.352;2023-07-13T01:38:07;20.00;99.90
41262;DHT22;29629;52.532;13.352;2023-07-13T01:40:35;20.10;99.90
41262;DHT22;29629;52.532;13.352;2023-07-13T01:43:03;20.00;99.90
41262;DHT22;29629;52.532;13.352;2023-07-13T01:45:31;20.10;99.90
41262;DHT22;29629;52.532;13.352;2023-07-13T01:47:58;20.20;99.90
41262;DHT22;29629;52.532;13.352;2023-07-13T01:50:25;20.30;99.90
41262;DHT22;29629;52.532;13.352;2023-07-13T01:52:52;20.30;99.90
41262;DHT22;29629;52.532;13.352;2023-07-13T01:55:21;20.30;99.90
41262;DHT22;29629;52.532;13.352;2023-07-13T01:57:48;20.30;99.90
41262;DHT22;29629;52.532;13.352;2023-07-13T02:00:15;20.30;99.90
41262;DHT22;29629;52.532;13.352;2023-07-13T02:02:43;20.40;99.90
41262;DHT22;29629;52.532;13.352;2023-07-13T02:05:09;20.30;99.90
41262;DHT22;29629;52.532;13.352;2023-07-13T02:07:37;20.30;99.90
41262;DHT22;29629;52.532;13.352;2023-07-13T02:10:04;20.30;99.90
41262;DHT22;29629;52.532;13.352;2023-07-13T02:12:33;20.40;99.90
41262;DHT22;29629;52.532;13.352;2023-07-13T02:15:00;20.40;99.90
41262;DHT22;29629;52.532;13.352;2023-07-13T02:17:27;20.30;99.90
41262;DHT22;29629;52.532;13.352;2023-07-13T02:19:54;20.20;99.90
41262;DHT22;29629;52.532;13.352;2023-07-13T02:22:21;20.10;99.90
41262;DHT22;29629;52.532;13.352;2023-07-13T02:24:49;20.00;99.90
41262;DHT22;29629;52.532;13.352;2023-07-13T02:27:16;19.90;99.90
41262;DHT22;29629;52.532;13.352;2023-07-13T02:29:44;20.00;99.90
41262;DHT22;29629;52.532;13.352;2023-07-13T02:32:11;20.00;99.90
41262;DHT22;29629;52.532;13.352;2023-07-13T02:34:38;20.20;99.90
41262;DHT22;29629;52.532;13.352;2023-07-13T02:37:05;20.20;99.90
41262;DHT22;29629;52.532;13.352;2023-07-13T02:39:32;20.30;99.90
41262;DHT22;29629;52.532;13.352;2023-07-13T02:41:59;20.20;99.90
41262;DHT22;29629;52.532;13.352;2023-07-13T02:44:26;20.20;99.90
41262;DHT22;29629;52.532;13.352;2023-07-13T02:46:55;20.20;99.90
41262;DHT22;29629;52.532;13.352;2023-07-13T02:49:22;20.30;99.90
41262;DHT22;29629;52.532;13.352;2023-07-13T02:51:49;20.20;99.90
41262;DHT22;29629;52.532;13.352;2023-07-13T02:54:16;20.20;99.90
41262;DHT22;29629;52.532;13.352;2023-07-13T02:56:43;20.10;99.90
41262;DHT22;29629;52.532;13.352;2023-07-13T02:59:10;20.10;99.90
41262;DHT22;29629;52.532;13.352;2023-07-13T03:01:37;20.10;99.90
41262;DHT22;29629;52.532;13.352;2023-07-13T03:04:06;20.00;99.90
41262;DHT22;29629;52.532;13.352;2023-07-13T03:06:34;19.90;99.90
41262;DHT22;29629;52.532;13.352;2023-07-13T03:09:01;19.90;99.90
41262;DHT22;29629;52.532;13.352;2023-07-13T03:11:29;19.90;99.90
41262;DHT22;29629;52.532;13.352;2023-07-13T03:13:56;20.00;99.90
41262;DHT22;29629;52.532;13.352;2023-07-13T03:16:23;20.00;99.90
41262;DHT22;29629;52.532;13.352;2023-07-13T03:18:50;20.00;99.90
41262;DHT22;29629;52.532;13.352;2023-07-13T03:21:19;19.90;99.90
41262;DHT22;29629;52.532;13.352;2023-07-13T03:23:46;19.80;99.90
41262;DHT22;29629;52.532;13.352;2023-07-13T03:26:15;19.80;99.90
41262;DHT22;29629;52.532;13.352;2023-07-13T03:28:43;19.90;99.90
41262;DHT22;29629;52.532;13.352;2023-07-13T03:31:12;19.90;99.90
41262;DHT22;29629;52.532;13.352;2023-07-13T03:33:39;19.80;99.90
41262;DHT22;29629;52.532;13.352;2023-07-13T03:36:09;19.70;99.90
41262;DHT22;29629;52.532;13.352;2023-07-13T03:38:37;19.70;99.90
41262;DHT22;29629;52.532;13.352;2023-07-13T03:41:04;19.80;99.90
41262;DHT22;29629;52.532;13.352;2023-07-13T03:43:31;19.70;99.90
41262;DHT22;29629;52.532;13.352;2023-07-13T03:45:58;19.70;99.90
41262;DHT22;29629;52.532;13.352;2023-07-13T03:48:25;19.80;99.90
41262;DHT22;29629;52.532;13.352;2023-07-13T03:50:52;19.70;99.90
41262;DHT22;29629;52.532;13.352;2023-07-13T03:53:19;19.70;99.90
41262;DHT22;29629;52.532;13.352;2023-07-13T03:55:47;19.60;99.90
41262;DHT22;29629;52.532;13.352;2023-07-13T03:58:34;19.60;99.90
41262;DHT22;29629;52.532;13.352;2023-07-13T04:01:02;19.60;99.90
41262;DHT22;29629;52.532;13.352;2023-07-13T04:03:31;19.60;99.90
41262;DHT22;29629;52.532;13.352;2023-07-13T04:05:58;19.60;99.90
41262;DHT22;29629;52.532;13.352;2023-07-13T04:08:26;19.60;99.90
41262;DHT22;29629;52.532;13.352;2023-07-13T04:10:55;19.70;99.90
41262;DHT22;29629;52.532;13.352;2023-07-13T04:13:23;19.70;99.90
41262;DHT22;29629;52.532;13.352;2023-07-13T04:15:50;19.80;99.90
41262;DHT22;29629;52.532;13.352;2023-07-13T04:18:17;19.90;99.90
41262;DHT22;29629;52.532;13.352;2023-07-13T04:20:45;19.90;99.90
41262;DHT22;29629;52.532;13.352;2023-07-13T04:23:12;19.90;99.90
41262;DHT22;29629;52.532;13.352;2023-07-13T04:25:39;19.80;99.90
41262;DHT22;29629;52.532;13.352;2023-07-13T04:28:07;19.90;99.90
41262;DHT22;29629;52.532;13.352;2023-07-13T04:30:34;20.10;99.90
41262;DHT22;29629;52.532;13.352;2023-07-13T04:33:01;20.10;99.90
41262;DHT22;29629;52.532;13.352;2023-07-13T04:35:30;20.10;99.90
41262;DHT22;29629;52.532;13.352;2023-07-13T04:37:57;20.20;99.90
41262;DHT22;29629;52.532;13.352;2023-07-13T04:40:24;20.30;99.90
41262;DHT22;29629;52.532;13.352;2023-07-13T04:42:51;20.30;99.90
41262;DHT22;29629;52.532;13.352;2023-07-13T04:45:19;20.50;99.90
41262;DHT22;29629;52.532;13.352;2023-07-13T04:47:46;20.70;99.90
41262;DHT22;29629;52.532;13.352;2023-07-13T04:50:14;20.60;99.90
41262;DHT22;29629;52.532;13.352;2023-07-13T04:52:45;20.70;99.90
41262;DHT22;29629;52.532;13.352;2023-07-13T04:55:12;20.70;99.90
41262;DHT22;29629;52.532;13.352;2023-07-13T04:57:39;20.80;99.90
41262;DHT22;29629;52.532;13.352;2023-07-13T05:00:07;20.90;99.90
41262;DHT22;29629;52.532;13.352;2023-07-13T05:02:38;21.00;99.90
41262;DHT22;29629;52.532;13.352;2023-07-13T05:05:06;21.10;99.90
41262;DHT22;29629;52.532;13.352;2023-07-13T05:07:33;21.10;99.90
41262;DHT22;29629;52.532;13.352;2023-07-13T05:10:00;21.20;99.90
41262;DHT22;29629;52.532;13.352;2023-07-13T05:12:27;21.50;99.90
41262;DHT22;29629;52.532;13.352;2023-07-13T05:14:54;21.60;99.90
41262;DHT22;29629;52.532;13.352;2023-07-13T05:17:21;21.70;99.90
41262;DHT22;29629;52.532;13.352;2023-07-13T05:19:49;21.70;99.90
41262;DHT22;29629;52.532;13.352;2023-07-13T05:22:16;21.70;99.90
41262;DHT22;29629;52.532;13.352;2023-07-13T05:24:43;21.80;99.90
41262;DHT22;29629;52.532;13.352;2023-07-13T05:27:10;21.70;99.90
41262;DHT22;29629;52.532;13.352;2023-07-13T05:29:37;21.80;99.90
41262;DHT22;29629;52.532;13.352;2023-07-13T05:32:04;21.90;99.90
41262;DHT22;29629;52.532;13.352;2023-07-13T05:34:31;22.00;99.90
41262;DHT22;29629;52.532;13.352;2023-07-13T05:37:00;22.00;99.90
41262;DHT22;29629;52.532;13.352;2023-07-13T05:39:27;22.10;99.90
41262;DHT22;29629;52.532;13.352;2023-07-13T05:41:54;22.10;99.90
41262;DHT22;29629;52.532;13.352;2023-07-13T05:44:21;22.10;99.90
41262;DHT22;29629;52.532;13.352;2023-07-13T05:46:48;22.10;99.90
41262;DHT22;29629;52.532;13.352;2023-07-13T05:49:15;22.20;99.90
41262;DHT22;29629;52.532;13.352;2023-07-13T05:51:42;22.30;99.90
41262;DHT22;29629;52.532;13.352;2023-07-13T05:54:10;22.30;99.90
41262;DHT22;29629;52.532;13.352;2023-07-13T05:56:37;22.50;99.90
41262;DHT22;29629;52.532;13.352;2023-07-13T05:59:04;22.50;99.90
41262;DHT22;29629;52.532;13.352;2023-07-13T06:01:32;22.60;99.90
41262;DHT22;29629;52.532;13.352;2023-07-13T06:03:59;22.70;99.90
41262;DHT22;29629;52.532;13.352;2023-07-13T06:06:26;22.80;99.90
41262;DHT22;29629;52.532;13.352;2023-07-13T06:08:53;22.80;99.90
41262;DHT22;29629;52.532;13.352;2023-07-13T06:11:23;23.00;99.90
41262;DHT22;29629;52.532;13.352;2023-07-13T06:13:50;22.90;99.90
41262;DHT22;29629;52.532;13.352;2023-07-13T06:16:18;22.90;99.90
41262;DHT22;29629;52.532;13.352;2023-07-13T06:18:45;23.10;99.90
41262;DHT22;29629;52.532;13.352;2023-07-13T06:21:14;23.20;99.90
41262;DHT22;29629;52.532;13.352;2023-07-13T06:23:41;23.40;99.90
41262;DHT22;29629;52.532;13.352;2023-07-13T06:26:09;23.40;99.90
41262;DHT22;29629;52.532;13.352;2023-07-13T06:28:38;23.30;99.90
41262;DHT22;29629;52.532;13.352;2023-07-13T06:31:06;23.50;99.90
41262;DHT22;29629;52.532;13.352;2023-07-13T06:33:34;23.60;99.90
41262;DHT22;29629;52.532;13.352;2023-07-13T06:36:01;23.40;99.90
41262;DHT22;29629;52.532;13.352;2023-07-13T06:38:28;23.50;99.90
41262;DHT22;29629;52.532;13.352;2023-07-13T06:40:55;23.70;99.90
41262;DHT22;29629;52.532;13.352;2023-07-13T06:43:23;23.90;99.90
41262;DHT22;29629;52.532;13.352;2023-07-13T06:45:54;23.90;99.90
41262;DHT22;29629;52.532;13.352;2023-07-13T06:48:21;24.00;99.90
41262;DHT22;29629;52.532;13.352;2023-07-13T06:50:48;24.00;99.90
41262;DHT22;29629;52.532;13.352;2023-07-13T06:53:18;24.00;99.90
41262;DHT22;29629;52.532;13.352;2023-07-13T06:55:45;24.10;99.90
41262;DHT22;29629;52.532;13.352;2023-07-13T06:58:15;24.10;99.90
41262;DHT22;29629;52.532;13.352;2023-07-13T07:00:42;24.30;99.90
41262;DHT22;29629;52.532;13.352;2023-07-13T07:03:11;24.30;99.90
41262;DHT22;29629;52.532;13.352;2023-07-13T07:05:38;24.50;99.90
41262;DHT22;29629;52.532;13.352;2023-07-13T07:08:04;24.70;99.90
41262;DHT22;29629;52.532;13.352;2023-07-13T07:10:31;24.50;99.90
41262;DHT22;29629;52.532;13.352;2023-07-13T07:12:58;24.70;99.90
41262;DHT22;29629;52.532;13.352;2023-07-13T07:15:25;24.80;99.90
41262;DHT22;29629;52.532;13.352;2023-07-13T07:17:52;24.80;99.90
41262;DHT22;29629;52.532;13.352;2023-07-13T07:20:21;25.00;99.90
41262;DHT22;29629;52.532;13.352;2023-07-13T07:22:48;25.20;99.90
41262;DHT22;29629;52.532;13.352;2023-07-13T07:25:15;25.50;99.90
41262;DHT22;29629;52.532;13.352;2023-07-13T07:27:42;25.20;99.90
41262;DHT22;29629;52.532;13.352;2023-07-13T07:30:10;25.30;99.90
41262;DHT22;29629;52.532;13.352;2023-07-13T07:32:37;25.30;99.90
41262;DHT22;29629;52.532;13.352;2023-07-13T07:35:05;25.50;99.90
41262;DHT22;29629;52.532;13.352;2023-07-13T07:37:33;25.70;99.90
41262;DHT22;29629;52.532;13.352;2023-07-13T07:40:00;25.80;99.90
41262;DHT22;29629;52.532;13.352;2023-07-13T07:42:28;25.70;99.90
41262;DHT22;29629;52.532;13.352;2023-07-13T07:44:55;25.50;99.90
41262;DHT22;29629;52.532;13.352;2023-07-13T07:47:22;25.20;99.90
41262;DHT22;29629;52.532;13.352;2023-07-13T07:49:49;25.10;99.90
41262;DHT22;29629;52.532;13.352;2023-07-13T07:52:17;24.80;99.90
41262;DHT22;29629;52.532;13.352;2023-07-13T07:54:45;25.00;99.90
41262;DHT22;29629;52.532;13.352;2023-07-13T07:57:12;24.80;99.90
41262;DHT22;29629;52.532;13.352;2023-07-13T07:59:39;24.80;99.90
41262;DHT22;29629;52.532;13.352;2023-07-13T08:02:08;24.80;99.90
41262;DHT22;29629;52.532;13.352;2023-07-13T08:04:35;24.70;99.90
41262;DHT22;29629;52.532;13.352;2023-07-13T08:07:02;24.50;99.90
41262;DHT22;29629;52.532;13.352;2023-07-13T08:09:34;24.60;99.90
41262;DHT22;29629;52.532;13.352;2023-07-13T08:12:02;24.60;99.90
41262;DHT22;29629;52.532;13.352;2023-07-13T08:14:29;24.80;99.90
41262;DHT22;29629;52.532;13.352;2023-07-13T08:16:56;25.00;99.90
41262;DHT22;29629;52.532;13.352;2023-07-13T08:19:23;25.10;99.90
41262;DHT22;29629;52.532;13.352;2023-07-13T08:21:50;25.30;99.90
41262;DHT22;29629;52.532;13.352;2023-07-13T08:24:17;25.30;99.90
41262;DHT22;29629;52.532;13.352;2023-07-13T08:26:45;25.80;99.90
41262;DHT22;29629;52.532;13.352;2023-07-13T08:29:14;26.00;99.90
41262;DHT22;29629;52.532;13.352;2023-07-13T08:31:40;25.80;99.90
41262;DHT22;29629;52.532;13.352;2023-07-13T08:34:07;25.50;99.90
41262;DHT22;29629;52.532;13.352;2023-07-13T08:36:35;25.30;99.90
41262;DHT22;29629;52.532;13.352;2023-07-13T08:39:02;25.20;99.90
41262;DHT22;29629;52.532;13.352;2023-07-13T08:41:29;25.20;99.90
41262;DHT22;29629;52.532;13.352;2023-07-13T08:43:59;25.20;99.90
41262;DHT22;29629;52.532;13.352;2023-07-13T08:46:35;25.20;99.90
41262;DHT22;29629;52.532;13.352;2023-07-13T08:49:05;24.80;99.90
41262;DHT22;29629;52.532;13.352;2023-07-13T08:51:40;24.70;99.90
41262;DHT22;29629;52.532;13.352;2023-07-13T08:54:18;24.80;99.90
41262;DHT22;29629;52.532;13.352;2023-07-13T08:56:46;25.10;99.90
41262;DHT22;29629;52.532;13.352;2023-07-13T08:59:16;25.20;99.90
41262;DHT22;29629;52.532;13.352;2023-07-13T09:04:45;26.30;99.90
41262;DHT22;29629;52.532;13.352;2023-07-13T09:07:23;26.60;99.90
41262;DHT22;29629;52.532;13.352;2023-07-13T09:10:02;27.10;99.90
41262;DHT22;29629;52.532;13.352;2023-07-13T09:12:39;27.00;99.90
41262;DHT22;29629;52.532;13.352;2023-07-13T09:15:21;26.50;99.90
41262;DHT22;29629;52.532;13.352;2023-07-13T09:17:51;26.30;99.90
41262;DHT22;29629;52.532;13.352;2023-07-13T09:20:25;26.60;99.90
41262;DHT22;29629;52.532;13.352;2023-07-13T09:22:52;27.00;99.90
41262;DHT22;29629;52.532;13.352;2023-07-13T09:25:26;27.50;99.90
41262;DHT22;29629;52.532;13.352;2023-07-13T09:27:57;27.90;99.90
41262;DHT22;29629;52.532;13.352;2023-07-13T09:30:33;28.50;99.90
41262;DHT22;29629;52.532;13.352;2023-07-13T09:33:05;29.20;99.90
41262;DHT22;29629;52.532;13.352;2023-07-13T09:35:32;29.80;99.90
41262;DHT22;29629;52.532;13.352;2023-07-13T09:38:03;29.30;99.90
41262;DHT22;29629;52.532;13.352;2023-07-13T09:40:39;30.10;99.90
41262;DHT22;29629;52.532;13.352;2023-07-13T09:43:08;30.30;99.90
41262;DHT22;29629;52.532;13.352;2023-07-13T09:45:37;31.30;99.80
41262;DHT22;29629;52.532;13.352;2023-07-13T09:48:11;31.50;96.70
41262;DHT22;29629;52.532;13.352;2023-07-13T09:50:39;32.60;96.60
41262;DHT22;29629;52.532;13.352;2023-07-13T09:53:12;32.20;95.50
41262;DHT22;29629;52.532;13.352;2023-07-13T09:55:41;30.60;96.10
41262;DHT22;29629;52.532;13.352;2023-07-13T09:58:11;31.90;95.70
41262;DHT22;29629;52.532;13.352;2023-07-13T10:00:40;33.80;95.00
41262;DHT22;29629;52.532;13.352;2023-07-13T10:03:22;34.20;92.90
41262;DHT22;29629;52.532;13.352;2023-07-13T10:05:51;31.20;94.70
41262;DHT22;29629;52.532;13.352;2023-07-13T10:08:21;33.10;94.40
41262;DHT22;29629;52.532;13.352;2023-07-13T10:10:53;34.90;93.00
41262;DHT22;29629;52.532;13.352;2023-07-13T10:13:27;33.10;91.70
41262;DHT22;29629;52.532;13.352;2023-07-13T10:15:55;33.70;92.40
41262;DHT22;29629;52.532;13.352;2023-07-13T10:18:26;33.40;92.30
41262;DHT22;29629;52.532;13.352;2023-07-13T10:21:08;33.90;91.30
41262;DHT22;29629;52.532;13.352;2023-07-13T10:23:36;33.70;91.30
41262;DHT22;29629;52.532;13.352;2023-07-13T10:26:05;31.80;91.90
41262;DHT22;29629;52.532;13.352;2023-07-13T10:28:37;31.60;93.90
41262;DHT22;29629;52.532;13.352;2023-07-13T10:31:12;31.10;92.30
41262;DHT22;29629;52.532;13.352;2023-07-13T10:33:41;30.70;92.60
41262;DHT22;29629;52.532;13.352;2023-07-13T10:36:15;32.40;92.50
41262;DHT22;29629;52.532;13.352;2023-07-13T10:38:44;31.90;92.80
41262;DHT22;29629;52.532;13.352;2023-07-13T10:41:17;32.00;92.80
41262;DHT22;29629;52.532;13.352;2023-07-13T10:43:47;30.70;92.30
41262;DHT22;29629;52.532;13.352;2023-07-13T10:46:19;31.30;94.00
41262;DHT22;29629;52.532;13.352;2023-07-13T10:48:51;31.60;92.10
41262;DHT22;29629;52.532;13.352;2023-07-13T10:51:20;30.10;92.60
41262;DHT22;29629;52.532;13.352;2023-07-13T10:54:10;30.30;92.90
41262;DHT22;29629;52.532;13.352;2023-07-13T10:56:40;29.40;93.00
41262;DHT22;29629;52.532;13.352;2023-07-13T10:59:12;29.30;94.00
41262;DHT22;29629;52.532;13.352;2023-07-13T11:01:48;29.30;93.30
41262;DHT22;29629;52.532;13.352;2023-07-13T11:04:19;29.50;94.50
41262;DHT22;29629;52.532;13.352;2023-07-13T11:06:50;30.70;92.80
41262;DHT22;29629;52.532;13.352;2023-07-13T11:09:33;31.60;93.20
41262;DHT22;29629;52.532;13.352;2023-07-13T11:12:03;33.10;92.00
41262;DHT22;29629;52.532;13.352;2023-07-13T11:14:35;33.10;90.60
41262;DHT22;29629;52.532;13.352;2023-07-13T11:17:32;32.60;88.60
41262;DHT22;29629;52.532;13.352;2023-07-13T11:20:19;33.10;90.00
41262;DHT22;29629;52.532;13.352;2023-07-13T11:22:49;33.60;88.70
41262;DHT22;29629;52.532;13.352;2023-07-13T11:25:27;32.90;89.30
41262;DHT22;29629;52.532;13.352;2023-07-13T11:28:14;33.00;88.90
41262;DHT22;29629;52.532;13.352;2023-07-13T11:30:45;32.50;88.00
41262;DHT22;29629;52.532;13.352;2023-07-13T11:33:16;31.90;89.30
41262;DHT22;29629;52.532;13.352;2023-07-13T11:35:57;31.50;86.50
41262;DHT22;29629;52.532;13.352;2023-07-13T11:38:30;30.50;88.40
41262;DHT22;29629;52.532;13.352;2023-07-13T11:41:02;31.30;87.70
41262;DHT22;29629;52.532;13.352;2023-07-13T11:43:30;31.30;86.00
41262;DHT22;29629;52.532;13.352;2023-07-13T11:46:12;31.10;86.00
41262;DHT22;29629;52.532;13.352;2023-07-13T11:48:39;31.50;90.20
41262;DHT22;29629;52.532;13.352;2023-07-13T11:51:18;32.40;87.20
41262;DHT22;29629;52.532;13.352;2023-07-13T11:53:48;33.50;85.80
41262;DHT22;29629;52.532;13.352;2023-07-13T11:56:16;32.00;85.60
41262;DHT22;29629;52.532;13.352;2023-07-13T11:58:43;31.10;89.40
41262;DHT22;29629;52.532;13.352;2023-07-13T12:01:18;32.30;86.40
41262;DHT22;29629;52.532;13.352;2023-07-13T12:03:46;31.90;87.00
41262;DHT22;29629;52.532;13.352;2023-07-13T12:06:26;31.60;86.60
41262;DHT22;29629;52.532;13.352;2023-07-13T12:08:56;32.30;86.80
41262;DHT22;29629;52.532;13.352;2023-07-13T12:11:23;32.30;85.50
41262;DHT22;29629;52.532;13.352;2023-07-13T12:13:50;33.00;85.50
41262;DHT22;29629;52.532;13.352;2023-07-13T12:16:25;33.40;85.90
41262;DHT22;29629;52.532;13.352;2023-07-13T12:18:53;33.10;85.50
41262;DHT22;29629;52.532;13.352;2023-07-13T12:21:29;33.40;85.30
41262;DHT22;29629;52.532;13.352;2023-07-13T12:23:56;33.10;85.80
41262;DHT22;29629;52.532;13.352;2023-07-13T12:26:23;33.60;85.20
41262;DHT22;29629;52.532;13.352;2023-07-13T12:28:53;33.60;86.00
41262;DHT22;29629;52.532;13.352;2023-07-13T12:31:34;33.60;84.60
41262;DHT22;29629;52.532;13.352;2023-07-13T12:34:03;34.30;82.50
41262;DHT22;29629;52.532;13.352;2023-07-13T12:36:36;33.40;82.90
41262;DHT22;29629;52.532;13.352;2023-07-13T12:39:14;33.80;82.90
41262;DHT22;29629;52.532;13.352;2023-07-13T12:41:42;33.60;84.50
41262;DHT22;29629;52.532;13.352;2023-07-13T12:44:15;34.10;81.80
41262;DHT22;29629;52.532;13.352;2023-07-13T12:46:53;33.90;81.70
41262;DHT22;29629;52.532;13.352;2023-07-13T12:49:26;33.60;80.90
41262;DHT22;29629;52.532;13.352;2023-07-13T12:51:58;30.90;82.70
41262;DHT22;29629;52.532;13.352;2023-07-13T12:54:26;31.80;84.70
41262;DHT22;29629;52.532;13.352;2023-07-13T12:56:54;32.10;84.30
41262;DHT22;29629;52.532;13.352;2023-07-13T12:59:28;31.30;82.80
41262;DHT22;29629;52.532;13.352;2023-07-13T13:01:56;30.30;84.50
41262;DHT22;29629;52.532;13.352;2023-07-13T13:04:23;29.50;86.30
41262;DHT22;29629;52.532;13.352;2023-07-13T13:07:02;30.00;90.00
41262;DHT22;29629;52.532;13.352;2023-07-13T13:09:29;30.20;87.50
41262;DHT22;29629;52.532;13.352;2023-07-13T13:11:57;30.20;86.30
41262;DHT22;29629;52.532;13.352;2023-07-13T13:14:24;30.90;85.10
41262;DHT22;29629;52.532;13.352;2023-07-13T13:16:52;30.80;85.00
41262;DHT22;29629;52.532;13.352;2023-07-13T13:19:24;30.70;86.90
41262;DHT22;29629;52.532;13.352;2023-07-13T13:21:53;30.60;85.80
41262;DHT22;29629;52.532;13.352;2023-07-13T13:24:26;30.60;85.90
41262;DHT22;29629;52.532;13.352;2023-07-13T13:26:54;30.40;85.40
41262;DHT22;29629;52.532;13.352;2023-07-13T13:29:24;30.40;86.30
41262;DHT22;29629;52.532;13.352;2023-07-13T13:31:51;29.80;86.80
41262;DHT22;29629;52.532;13.352;2023-07-13T13:34:19;29.30;87.30
41262;DHT22;29629;52.532;13.352;2023-07-13T13:36:49;29.60;88.40
41262;DHT22;29629;52.532;13.352;2023-07-13T13:39:23;29.40;88.70
41262;DHT22;29629;52.532;13.352;2023-07-13T13:41:51;28.90;89.60
41262;DHT22;29629;52.532;13.352;2023-07-13T13:44:20;29.30;90.10
41262;DHT22;29629;52.532;13.352;2023-07-13T13:46:48;29.10;87.40
41262;DHT22;29629;52.532;13.352;2023-07-13T13:49:18;28.90;88.10
41262;DHT22;29629;52.532;13.352;2023-07-13T13:51:46;28.50;89.30
41262;DHT22;29629;52.532;13.352;2023-07-13T13:54:14;28.40;90.10
41262;DHT22;29629;52.532;13.352;2023-07-13T13:56:44;28.80;90.60
41262;DHT22;29629;52.532;13.352;2023-07-13T13:59:11;28.80;90.10
41262;DHT22;29629;52.532;13.352;2023-07-13T14:01:39;27.90;89.40
41262;DHT22;29629;52.532;13.352;2023-07-13T14:04:09;27.70;90.70
41262;DHT22;29629;52.532;13.352;2023-07-13T14:06:40;27.90;90.50
41262;DHT22;29629;52.532;13.352;2023-07-13T14:09:09;27.80;90.50
41262;DHT22;29629;52.532;13.352;2023-07-13T14:11:37;27.70;90.50
41262;DHT22;29629;52.532;13.352;2023-07-13T14:14:05;27.50;90.90
41262;DHT22;29629;52.532;13.352;2023-07-13T14:16:33;27.60;91.20
41262;DHT22;29629;52.532;13.352;2023-07-13T14:19:00;27.40;91.30
41262;DHT22;29629;52.532;13.352;2023-07-13T14:21:29;27.40;91.90
41262;DHT22;29629;52.532;13.352;2023-07-13T14:23:56;27.50;91.60
41262;DHT22;29629;52.532;13.352;2023-07-13T14:26:25;27.50;91.40
41262;DHT22;29629;52.532;13.352;2023-07-13T14:28:54;27.40;92.00
41262;DHT22;29629;52.532;13.352;2023-07-13T14:31:24;27.50;92.00
41262;DHT22;29629;52.532;13.352;2023-07-13T14:33:54;27.40;91.80
41262;DHT22;29629;52.532;13.352;2023-07-13T14:36:27;27.50;92.10
41262;DHT22;29629;52.532;13.352;2023-07-13T14:38:54;27.40;91.10
41262;DHT22;29629;52.532;13.352;2023-07-13T14:41:21;27.10;91.60
41262;DHT22;29629;52.532;13.352;2023-07-13T14:43:49;27.10;92.00
41262;DHT22;29629;52.532;13.352;2023-07-13T14:46:27;27.20;92.00
41262;DHT22;29629;52.532;13.352;2023-07-13T14:49:00;27.00;92.00
41262;DHT22;29629;52.532;13.352;2023-07-13T14:51:28;26.60;91.80
41262;DHT22;29629;52.532;13.352;2023-07-13T14:53:55;26.70;92.20
41262;DHT22;29629;52.532;13.352;2023-07-13T14:56:22;26.90;92.30
41262;DHT22;29629;52.532;13.352;2023-07-13T14:58:49;26.80;91.30
41262;DHT22;29629;52.532;13.352;2023-07-13T15:01:16;26.90;91.60
41262;DHT22;29629;52.532;13.352;2023-07-13T15:03:46;26.60;91.60
41262;DHT22;29629;52.532;13.352;2023-07-13T15:06:15;26.60;91.70
41262;DHT22;29629;52.532;13.352;2023-07-13T15:08:42;26.80;91.90
41262;DHT22;29629;52.532;13.352;2023-07-13T15:11:12;26.80;91.60
41262;DHT22;29629;52.532;13.352;2023-07-13T15:13:40;26.60;91.10
41262;DHT22;29629;52.532;13.352;2023-07-13T15:16:15;26.70;91.00
41262;DHT22;29629;52.532;13.352;2023-07-13T15:18:45;26.60;90.30
41262;DHT22;29629;52.532;13.352;2023-07-13T15:21:16;26.40;90.70
41262;DHT22;29629;52.532;13.352;2023-07-13T15:23:44;26.30;91.20
41262;DHT22;29629;52.532;13.352;2023-07-13T15:26:12;26.50;91.30
41262;DHT22;29629;52.532;13.352;2023-07-13T15:28:41;26.20;91.60
41262;DHT22;29629;52.532;13.352;2023-07-13T15:31:19;26.40;92.10